Terminal Aerodrome Forecast
Issued by NWS Newport/Morehead City, NC

Home | Current Version | Previous Version | Text Only | Print | Product List | Glossary On
Versions: 1 2 3 4 5 6 7 8 9 10 11 12 13 14 15 16 17 18 19 20 21 22 23 24 25 26
000
FTUS42 KMHX 201700 RRA
TAFEWN
TAF
KEWN 201742Z 2018/2118 34005KT P6SM BKN035
     FM202000 VRB05KT P6SM VCTS BKN040CB
     FM210000 VRB02KT P6SM SCT200
     FM210700 00000KT 2SM BR SCT003
     FM211300 25005KT P6SM SCT040=

USA.gov is the U.S. government's official web portal to all federal, state and local government web resources and services.